Time;durP1;ratioP1;P1;durP2;ratioP2;P2;SDS_P1;SDS_P2;PMS_P1;PMS_P2;Temp;Humidity;BMP_temperature;BMP_pressure;BME280_temperature;BME280_humidity;BME280_pressure;Samples;Min_cycle;Max_cycle;Signal;HPM_P1;HPM_P2
2022/10/01 00:01:48;;;;;;;;;;;;;15.10;97605.80;;;;110861;1249;42119;-62
2022/10/01 00:04:17;;;;;;;;;;;;;15.10;97608.20;;;;110981;1248;41487;-62
2022/10/01 00:06:45;;;;;;;;;;;;;15.10;97607.80;;;;110798;1249;41428;-61
2022/10/01 00:09:14;;;;;;;;;;;;;15.10;97610.20;;;;110923;1249;41598;-61
2022/10/01 00:11:42;;;;;;;;;;;;;15.10;97613.40;;;;111008;1247;41261;-61
2022/10/01 00:14:11;;;;;;;;;;;;;15.12;97616.80;;;;110639;1247;41594;-61
2022/10/01 00:16:38;;;;;;;;;;;;;15.12;97623.80;;;;110942;1248;42137;-61
2022/10/01 00:19:10;;;;;;;;;;;;;15.10;97619.40;;;;110813;1249;41258;-60
2022/10/01 00:21:38;;;;;;;;;;;;;15.10;97614.20;;;;111066;1247;41266;-61
2022/10/01 00:24:10;;;;;;;;;;;;;15.10;97615.20;;;;111079;1249;41953;-61
2022/10/01 00:26:37;;;;;;;;;;;;;15.10;97618.00;;;;110785;1248;41258;-61
2022/10/01 00:29:06;;;;;;;;;;;;;15.18;97618.20;;;;111106;1248;42538;-61
2022/10/01 00:31:35;;;;;;;;;;;;;15.20;97614.40;;;;111074;1249;41139;-61
2022/10/01 00:34:04;;;;;;;;;;;;;15.20;97612.60;;;;111026;1248;41177;-61
2022/10/01 00:36:33;;;;;;;;;;;;;15.20;97616.60;;;;111069;1248;41168;-61
2022/10/01 00:39:01;;;;;;;;;;;;;15.20;97623.20;;;;111122;1247;41765;-61
2022/10/01 00:41:31;;;;;;;;;;;;;15.20;97620.80;;;;111068;1249;42221;-61
2022/10/01 00:44:01;;;;;;;;;;;;;15.20;97603.20;;;;111166;1247;41600;-61
2022/10/01 00:46:32;;;;;;;;;;;;;15.20;97605.40;;;;111138;1247;41157;-60
2022/10/01 00:49:00;;;;;;;;;;;;;15.20;97606.20;;;;111134;1247;42520;-62
2022/10/01 00:51:29;;;;;;;;;;;;;15.20;97609.60;;;;111110;1247;41155;-61
2022/10/01 00:54:01;;;;;;;;;;;;;15.20;97608.80;;;;111098;1247;41707;-61
2022/10/01 00:56:29;;;;;;;;;;;;;15.20;97615.60;;;;111041;1248;42554;-62
2022/10/01 00:58:59;;;;;;;;;;;;;15.20;97619.60;;;;110960;1249;41945;-62
2022/10/01 01:01:27;;;;;;;;;;;;;15.20;97626.80;;;;111077;1247;41142;-61
2022/10/01 01:03:55;;;;;;;;;;;;;15.10;97621.40;;;;110876;1249;41476;-61
2022/10/01 01:06:24;;;;;;;;;;;;;14.90;97616.60;;;;111096;1247;41910;-61
2022/10/01 01:08:53;;;;;;;;;;;;;14.78;97619.40;;;;111050;1247;41207;-61
2022/10/01 01:11:25;;;;;;;;;;;;;14.60;97613.80;;;;111105;1247;41256;-61
2022/10/01 01:14:06;;;;;;;;;;;;;14.50;97616.40;;;;110752;1249;41241;-61
2022/10/01 01:16:54;;;;;;;;;;;;;14.50;97615.80;;;;110744;1250;41905;-61
2022/10/01 01:19:32;;;;;;;;;;;;;14.50;97614.40;;;;110687;1249;41155;-61
2022/10/01 01:22:02;;;;;;;;;;;;;14.50;97603.80;;;;110929;1250;41156;-61
2022/10/01 01:24:43;;;;;;;;;;;;;14.50;97592.00;;;;110763;1249;41602;-61
2022/10/01 01:27:27;;;;;;;;;;;;;14.50;97582.80;;;;111050;1249;41181;-61
2022/10/01 01:30:08;;;;;;;;;;;;;14.50;97579.00;;;;111123;1247;41264;-59
2022/10/01 01:32:45;;;;;;;;;;;;;14.50;97575.00;;;;111123;1247;41192;-63
2022/10/01 01:35:31;;;;;;;;;;;;;14.50;97578.40;;;;111080;1248;41162;-62
2022/10/01 01:38:03;;;;;;;;;;;;;14.50;97578.40;;;;111133;1248;41633;-61
2022/10/01 01:40:33;;;;;;;;;;;;;14.50;97585.60;;;;111179;1248;41138;-60
2022/10/01 01:43:04;;;;;;;;;;;;;14.50;97587.00;;;;111058;1249;41392;-60
2022/10/01 01:45:32;;;;;;;;;;;;;14.40;97586.20;;;;111195;1247;41266;-60
2022/10/01 01:48:01;;;;;;;;;;;;;14.40;97579.60;;;;111159;1247;41567;-60
2022/10/01 01:50:30;;;;;;;;;;;;;14.44;97581.60;;;;111193;1247;41144;-60
2022/10/01 01:52:59;;;;;;;;;;;;;14.50;97587.40;;;;111214;1247;41260;-61
2022/10/01 01:55:28;;;;;;;;;;;;;14.50;97588.00;;;;111107;1249;41168;-60
2022/10/01 01:57:57;;;;;;;;;;;;;14.50;97589.60;;;;110850;1249;41166;-60
2022/10/01 02:00:28;;;;;;;;;;;;;14.50;97591.80;;;;111017;1248;41153;-61
2022/10/01 02:02:56;;;;;;;;;;;;;14.50;97589.60;;;;110993;1248;41118;-61
2022/10/01 02:05:26;;;;;;;;;;;;;14.50;97586.80;;;;110945;1248;41218;-61
2022/10/01 02:08:03;;;;;;;;;;;;;14.50;97579.40;;;;110990;1249;41415;-61
2022/10/01 02:11:00;;;;;;;;;;;;;14.50;97585.00;;;;111070;1247;41618;-61
2022/10/01 02:13:38;;;;;;;;;;;;;14.40;97578.40;;;;111215;1247;41156;-60
2022/10/01 02:16:07;;;;;;;;;;;;;14.40;97570.40;;;;111142;1248;41160;-60
2022/10/01 02:18:38;;;;;;;;;;;;;14.40;97559.00;;;;111139;1247;41184;-61
2022/10/01 02:21:09;;;;;;;;;;;;;14.40;97555.80;;;;111156;1247;41244;-60
2022/10/01 02:23:48;;;;;;;;;;;;;14.40;97554.80;;;;111158;1247;40877;-60
2022/10/01 02:26:18;;;;;;;;;;;;;14.40;97551.60;;;;111116;1247;41777;-60
2022/10/01 02:28:46;;;;;;;;;;;;;14.40;97550.40;;;;111128;1247;42381;-60
2022/10/01 02:31:15;;;;;;;;;;;;;14.40;97560.40;;;;110783;1249;41144;-60
2022/10/01 02:33:43;;;;;;;;;;;;;14.40;97558.60;;;;110699;1249;42262;-60
2022/10/01 02:36:11;;;;;;;;;;;;;14.40;97565.40;;;;111081;1249;41654;-60
2022/10/01 02:38:40;;;;;;;;;;;;;14.40;97568.40;;;;111141;1247;42613;-60
2022/10/01 02:41:10;;;;;;;;;;;;;14.40;97564.40;;;;111135;1247;41139;-60
2022/10/01 02:44:01;;;;;;;;;;;;;14.40;97567.00;;;;111115;1248;42385;-60
2022/10/01 02:46:33;;;;;;;;;;;;;14.40;97564.40;;;;111066;1246;41181;-61
2022/10/01 02:49:03;;;;;;;;;;;;;14.40;97563.00;;;;111071;1248;41143;-61
2022/10/01 02:51:52;;;;;;;;;;;;;14.34;97567.40;;;;111131;1244;41949;-61
2022/10/01 02:54:37;;;;;;;;;;;;;14.30;97577.80;;;;111077;1248;42889;-61
2022/10/01 02:59:58;;;;;;;;;;;;;14.20;97589.00;;;;111023;1248;41154;-59
2022/10/01 03:02:28;;;;;;;;;;;;;14.20;97584.20;;;;110666;1249;41153;-59
2022/10/01 03:04:56;;;;;;;;;;;;;14.10;97575.60;;;;111061;1248;41319;-59
2022/10/01 03:07:26;;;;;;;;;;;;;14.10;97574.40;;;;111031;1249;41165;-59
2022/10/01 03:09:54;;;;;;;;;;;;;14.12;97579.80;;;;110853;1249;41130;-61
2022/10/01 03:12:23;;;;;;;;;;;;;14.14;97573.80;;;;110840;1247;41148;-61
2022/10/01 03:14:52;;;;;;;;;;;;;14.12;97568.20;;;;110941;1249;42067;-61
2022/10/01 03:17:21;;;;;;;;;;;;;14.10;97571.20;;;;111105;1247;41153;-62
2022/10/01 03:19:49;;;;;;;;;;;;;14.10;97571.20;;;;111039;1247;41143;-61
2022/10/01 03:22:21;;;;;;;;;;;;;14.10;97570.60;;;;111041;1248;41161;-61
2022/10/01 03:24:51;;;;;;;;;;;;;14.10;97572.40;;;;111138;1248;41242;-61
2022/10/01 03:27:22;;;;;;;;;;;;;14.10;97568.20;;;;111055;1247;41142;-60
2022/10/01 03:29:50;;;;;;;;;;;;;14.10;97570.60;;;;111065;1248;41619;-61
2022/10/01 03:32:19;;;;;;;;;;;;;14.10;97572.00;;;;111060;1247;41156;-61
2022/10/01 03:34:47;;;;;;;;;;;;;14.10;97578.60;;;;111058;1249;41204;-61
2022/10/01 03:37:15;;;;;;;;;;;;;14.10;97571.60;;;;111145;1247;41151;-61
2022/10/01 03:39:43;;;;;;;;;;;;;14.10;97570.00;;;;111271;1247;41660;-61
2022/10/01 03:42:11;;;;;;;;;;;;;14.10;97571.00;;;;111203;1247;41226;-61
2022/10/01 03:44:41;;;;;;;;;;;;;14.10;97575.40;;;;111240;1247;41302;-61
2022/10/01 03:47:09;;;;;;;;;;;;;14.10;97566.40;;;;111186;1247;41279;-61
2022/10/01 03:49:37;;;;;;;;;;;;;14.00;97560.40;;;;111292;1247;41158;-61
2022/10/01 03:52:06;;;;;;;;;;;;;14.00;97564.20;;;;110798;1248;41703;-61
2022/10/01 03:54:34;;;;;;;;;;;;;14.00;97570.80;;;;111188;1247;41267;-61
2022/10/01 03:57:02;;;;;;;;;;;;;14.00;97573.00;;;;111031;1247;42272;-61
2022/10/01 03:59:31;;;;;;;;;;;;;14.00;97573.60;;;;110963;1248;41304;-61
2022/10/01 04:01:58;;;;;;;;;;;;;14.00;97571.20;;;;111158;1247;42022;-61
2022/10/01 04:04:27;;;;;;;;;;;;;13.96;97574.00;;;;111185;1247;41218;-61
2022/10/01 04:06:56;;;;;;;;;;;;;13.90;97571.00;;;;111190;1247;41787;-61
2022/10/01 04:09:25;;;;;;;;;;;;;13.90;97574.40;;;;111146;1247;41146;-60
2022/10/01 04:11:53;;;;;;;;;;;;;13.90;97580.80;;;;111235;1248;41260;-60
2022/10/01 04:14:21;;;;;;;;;;;;;13.90;97584.00;;;;111049;1247;41189;-60
2022/10/01 04:16:51;;;;;;;;;;;;;13.90;97598.20;;;;110923;1248;41610;-61
2022/10/01 04:19:19;;;;;;;;;;;;;13.88;97602.20;;;;111196;1248;41200;-60
2022/10/01 04:21:47;;;;;;;;;;;;;13.80;97602.60;;;;111299;1247;41707;-60
2022/10/01 04:24:14;;;;;;;;;;;;;13.80;97606.40;;;;110986;1247;41208;-60
2022/10/01 04:26:41;;;;;;;;;;;;;13.80;97610.60;;;;111023;1249;42221;-60
2022/10/01 04:29:09;;;;;;;;;;;;;13.80;97615.00;;;;111111;1248;41254;-60
2022/10/01 04:31:38;;;;;;;;;;;;;13.80;97620.60;;;;111250;1248;41223;-61
2022/10/01 04:34:06;;;;;;;;;;;;;13.80;97620.60;;;;111268;1248;41187;-61
2022/10/01 04:36:33;;;;;;;;;;;;;13.76;97624.80;;;;111075;1248;41153;-62
2022/10/01 04:39:00;;;;;;;;;;;;;13.76;97630.80;;;;111174;1248;41299;-61
2022/10/01 04:41:30;;;;;;;;;;;;;13.74;97625.00;;;;111168;1247;41150;-60
2022/10/01 04:43:58;;;;;;;;;;;;;13.70;97621.80;;;;110922;1248;42410;-61
2022/10/01 04:46:27;;;;;;;;;;;;;13.72;97621.60;;;;110995;1248;42084;-61
2022/10/01 04:48:55;;;;;;;;;;;;;13.70;97615.40;;;;111072;1248;41190;-61
2022/10/01 04:51:23;;;;;;;;;;;;;13.70;97617.00;;;;111053;1248;42052;-59
2022/10/01 04:53:50;;;;;;;;;;;;;13.70;97608.40;;;;111103;1248;41158;-61
2022/10/01 04:56:18;;;;;;;;;;;;;13.70;97611.40;;;;111039;1248;41616;-61
2022/10/01 04:58:47;;;;;;;;;;;;;13.70;97609.00;;;;110758;1250;41526;-61
2022/10/01 05:01:14;;;;;;;;;;;;;13.70;97614.40;;;;110852;1249;41171;-61
2022/10/01 05:03:42;;;;;;;;;;;;;13.70;97606.00;;;;110814;1247;41724;-60
2022/10/01 05:06:13;;;;;;;;;;;;;13.70;97612.00;;;;111030;1249;42046;-61
2022/10/01 05:08:40;;;;;;;;;;;;;13.80;97609.00;;;;111012;1247;41120;-60
2022/10/01 05:11:07;;;;;;;;;;;;;13.84;97614.60;;;;111062;1247;41605;-60
2022/10/01 05:13:34;;;;;;;;;;;;;13.90;97617.80;;;;111048;1248;41606;-61
2022/10/01 05:16:02;;;;;;;;;;;;;14.00;97618.40;;;;111019;1247;41310;-61
2022/10/01 05:18:29;;;;;;;;;;;;;14.10;97622.60;;;;111002;1249;41131;-60
2022/10/01 05:20:57;;;;;;;;;;;;;14.20;97622.20;;;;111071;1247;41243;-60
2022/10/01 05:23:24;;;;;;;;;;;;;14.28;97618.20;;;;110694;1249;41148;-60
2022/10/01 05:25:52;;;;;;;;;;;;;14.30;97623.20;;;;111077;1247;41264;-60
2022/10/01 05:28:19;;;;;;;;;;;;;14.40;97623.40;;;;111050;1248;42035;-60
2022/10/01 05:30:52;;;;;;;;;;;;;14.40;97629.40;;;;111073;1248;41486;-60
2022/10/01 05:33:20;;;;;;;;;;;;;14.50;97637.00;;;;111163;1248;42156;-61
2022/10/01 05:35:47;;;;;;;;;;;;;14.50;97628.80;;;;111051;1247;41251;-61
2022/10/01 05:38:14;;;;;;;;;;;;;14.50;97629.60;;;;110933;1247;299688;-60
2022/10/01 05:40:44;;;;;;;;;;;;;14.60;97630.60;;;;111191;1248;41156;-61
2022/10/01 05:43:11;;;;;;;;;;;;;14.62;97635.40;;;;111081;1247;41181;-61
2022/10/01 05:45:39;;;;;;;;;;;;;14.74;97640.60;;;;111105;1248;41253;-61
2022/10/01 05:48:06;;;;;;;;;;;;;14.88;97630.60;;;;111044;1247;41268;-60
2022/10/01 05:50:35;;;;;;;;;;;;;15.00;97631.60;;;;111051;1247;41776;-60
2022/10/01 05:53:02;;;;;;;;;;;;;15.10;97639.00;;;;111109;1247;41151;-60
2022/10/01 05:55:33;;;;;;;;;;;;;15.20;97643.00;;;;110794;1247;41270;-61
2022/10/01 05:58:04;;;;;;;;;;;;;15.40;97637.00;;;;111091;1247;41271;-61
2022/10/01 06:00:32;;;;;;;;;;;;;15.60;97634.20;;;;111138;1247;41190;-61
2022/10/01 06:03:00;;;;;;;;;;;;;15.80;97637.20;;;;110591;1250;41212;-61
2022/10/01 06:05:29;;;;;;;;;;;;;16.02;97639.80;;;;111088;1248;41156;-61
2022/10/01 06:07:56;;;;;;;;;;;;;16.20;97647.00;;;;110785;1249;41170;-61
2022/10/01 06:10:23;;;;;;;;;;;;;16.40;97644.20;;;;110626;1249;41130;-60
2022/10/01 06:12:50;;;;;;;;;;;;;16.60;97652.00;;;;110738;1250;41171;-60
2022/10/01 06:15:17;;;;;;;;;;;;;16.80;97647.40;;;;110645;1249;41917;-60
2022/10/01 06:17:44;;;;;;;;;;;;;17.08;97642.00;;;;111112;1249;42042;-60
2022/10/01 06:20:12;;;;;;;;;;;;;17.20;97635.00;;;;111096;1247;41153;-59
2022/10/01 06:22:41;;;;;;;;;;;;;17.40;97636.40;;;;111083;1247;41713;-60
2022/10/01 06:25:09;;;;;;;;;;;;;17.64;97635.60;;;;110975;1250;42066;-60
2022/10/01 06:27:38;;;;;;;;;;;;;17.90;97632.60;;;;110785;1250;41560;-60
2022/10/01 06:30:11;;;;;;;;;;;;;18.10;97633.80;;;;111192;1248;41347;-61
2022/10/01 06:32:45;;;;;;;;;;;;;18.26;97645.40;;;;111168;1247;41140;-61
2022/10/01 06:35:12;;;;;;;;;;;;;18.40;97643.80;;;;110868;1248;41821;-61
2022/10/01 06:37:39;;;;;;;;;;;;;18.50;97635.40;;;;110669;1249;41151;-61
2022/10/01 06:40:06;;;;;;;;;;;;;18.70;97633.80;;;;110816;1248;41251;-61
2022/10/01 06:42:34;;;;;;;;;;;;;18.90;97625.20;;;;111136;1248;41140;-61
2022/10/01 06:45:07;;;;;;;;;;;;;19.00;97623.40;;;;110950;1249;41143;-61
2022/10/01 06:47:36;;;;;;;;;;;;;19.10;97623.60;;;;110946;1249;41617;-61
2022/10/01 06:50:03;;;;;;;;;;;;;19.24;97621.40;;;;111019;1248;41797;-61
2022/10/01 06:52:49;;;;;;;;;;;;;19.44;97618.00;;;;110962;1249;41601;-59
2022/10/01 06:55:24;;;;;;;;;;;;;19.70;97611.60;;;;110716;1249;41235;-59
2022/10/01 06:57:55;;;;;;;;;;;;;19.90;97608.60;;;;110671;1250;41139;-58
2022/10/01 07:00:22;;;;;;;;;;;;;20.04;97608.80;;;;110861;1249;41290;-60
2022/10/01 07:02:49;;;;;;;;;;;;;20.20;97606.60;;;;111049;1248;41258;-60
2022/10/01 07:05:18;;;;;;;;;;;;;20.30;97600.40;;;;111049;1249;41366;-62
2022/10/01 07:07:46;;;;;;;;;;;;;20.40;97596.80;;;;110885;1249;41779;-61
2022/10/01 07:10:14;;;;;;;;;;;;;20.50;97591.40;;;;111098;1249;41170;-61
2022/10/01 07:12:41;;;;;;;;;;;;;20.54;97594.00;;;;110900;1249;42019;-61
2022/10/01 07:15:11;;;;;;;;;;;;;20.60;97591.80;;;;111284;1248;41139;-61
2022/10/01 07:17:42;;;;;;;;;;;;;20.60;97593.00;;;;110950;1249;41208;-61
2022/10/01 07:20:11;;;;;;;;;;;;;20.60;97586.00;;;;110803;1249;41421;-60
2022/10/01 07:22:39;;;;;;;;;;;;;20.70;97590.00;;;;110857;1249;41191;-60
2022/10/01 07:25:06;;;;;;;;;;;;;20.80;97591.60;;;;110939;1247;41262;-61
2022/10/01 07:27:33;;;;;;;;;;;;;20.90;97586.60;;;;111151;1248;42387;-61
2022/10/01 07:30:00;;;;;;;;;;;;;21.10;97583.60;;;;111120;1248;41478;-61
2022/10/01 07:32:30;;;;;;;;;;;;;21.20;97593.80;;;;111061;1249;41255;-60
2022/10/01 07:34:58;;;;;;;;;;;;;21.40;97595.20;;;;111032;1248;41137;-61
2022/10/01 07:37:25;;;;;;;;;;;;;21.50;97592.60;;;;110771;1249;41526;-61
2022/10/01 07:39:52;;;;;;;;;;;;;21.60;97588.60;;;;111166;1249;41725;-61
2022/10/01 07:42:20;;;;;;;;;;;;;21.80;97589.40;;;;111022;1249;41251;-60
2022/10/01 07:44:48;;;;;;;;;;;;;21.90;97591.60;;;;111095;1248;42068;-60
2022/10/01 07:47:15;;;;;;;;;;;;;21.90;97595.20;;;;111043;1249;41145;-60
2022/10/01 07:49:41;;;;;;;;;;;;;22.00;97590.00;;;;111056;1249;41153;-60
2022/10/01 07:52:08;;;;;;;;;;;;;22.10;97596.40;;;;110664;1250;41141;-60
2022/10/01 07:54:39;;;;;;;;;;;;;22.24;97597.60;;;;110642;1250;41350;-60
2022/10/01 07:57:07;;;;;;;;;;;;;22.22;97589.80;;;;110851;1250;41257;-60
2022/10/01 07:59:34;;;;;;;;;;;;;22.30;97589.20;;;;111024;1247;41121;-60
2022/10/01 08:02:01;;;;;;;;;;;;;22.30;97583.40;;;;111041;1248;41798;-61
2022/10/01 08:07:15;;;;;;;;;;;;;22.48;97578.60;;;;111125;1249;41141;-60
2022/10/01 08:09:42;;;;;;;;;;;;;22.62;97572.80;;;;111097;1247;41251;-60
2022/10/01 08:12:09;;;;;;;;;;;;;22.80;97567.20;;;;110723;1249;41251;-60
2022/10/01 08:14:36;;;;;;;;;;;;;23.00;97562.60;;;;111030;1249;41737;-59
2022/10/01 08:17:06;;;;;;;;;;;;;23.20;97561.80;;;;111004;1249;41257;-60
2022/10/01 08:19:35;;;;;;;;;;;;;23.40;97558.00;;;;110743;1249;41153;-60
2022/10/01 08:22:02;;;;;;;;;;;;;23.50;97558.80;;;;111045;1248;41141;-59
2022/10/01 08:24:30;;;;;;;;;;;;;23.60;97552.20;;;;111028;1248;41153;-59
2022/10/01 08:26:57;;;;;;;;;;;;;23.70;97550.60;;;;111074;1247;41261;-60
2022/10/01 08:29:26;;;;;;;;;;;;;23.90;97554.00;;;;110689;1249;41631;-62
2022/10/01 08:31:53;;;;;;;;;;;;;24.08;97550.60;;;;110692;1250;41161;-60
2022/10/01 08:34:20;;;;;;;;;;;;;24.30;97541.40;;;;110723;1248;41927;-60
2022/10/01 08:36:50;;;;;;;;;;;;;24.50;97541.20;;;;110606;1248;41153;-60
2022/10/01 08:39:17;;;;;;;;;;;;;24.60;97537.80;;;;110678;1249;41190;-60
2022/10/01 08:41:58;;;;;;;;;;;;;24.80;97538.80;;;;110684;1250;41167;-60
2022/10/01 08:44:27;;;;;;;;;;;;;25.00;97533.20;;;;111012;1249;41189;-60
2022/10/01 08:46:56;;;;;;;;;;;;;25.20;97535.60;;;;111085;1247;41252;-60
2022/10/01 08:49:27;;;;;;;;;;;;;25.46;97531.40;;;;111062;1249;42946;-61
2022/10/01 08:51:55;;;;;;;;;;;;;25.66;97530.00;;;;110625;1250;41153;-60
2022/10/01 08:54:22;;;;;;;;;;;;;25.94;97524.00;;;;110648;1250;41726;-60
2022/10/01 08:56:49;;;;;;;;;;;;;26.30;97524.40;;;;111062;1248;42172;-60
2022/10/01 08:59:31;;;;;;;;;;;;;26.56;97521.60;;;;110995;1247;41312;-60
2022/10/01 09:01:58;;;;;;;;;;;;;26.84;97514.20;;;;110891;1250;41130;-61
2022/10/01 09:04:26;;;;;;;;;;;;;27.06;97517.20;;;;110946;1250;41157;-61
2022/10/01 09:07:04;;;;;;;;;;;;;27.26;97514.60;;;;111054;1249;41153;-60
2022/10/01 09:09:35;;;;;;;;;;;;;27.60;97516.80;;;;111107;1248;41712;-60
2022/10/01 09:12:08;;;;;;;;;;;;;27.88;97503.60;;;;111155;1248;41185;-60
2022/10/01 09:14:53;;;;;;;;;;;;;28.18;97502.80;;;;111080;1248;41124;-60
2022/10/01 09:17:29;;;;;;;;;;;;;28.34;97500.80;;;;111118;1248;41217;-60
2022/10/01 09:19:56;;;;;;;;;;;;;28.50;97496.40;;;;110984;1249;41389;-60
2022/10/01 09:22:33;;;;;;;;;;;;;28.66;97491.20;;;;111121;1247;41139;-60
2022/10/01 09:25:05;;;;;;;;;;;;;28.90;97484.20;;;;111085;1247;41575;-60
2022/10/01 09:27:33;;;;;;;;;;;;;29.00;97488.80;;;;111067;1247;41859;-61
2022/10/01 09:30:02;;;;;;;;;;;;;28.60;97481.20;;;;110741;1249;41712;-60
2022/10/01 09:32:35;;;;;;;;;;;;;28.80;97479.00;;;;111111;1247;41299;-61
2022/10/01 09:35:04;;;;;;;;;;;;;28.88;97476.80;;;;111079;1247;41545;-61
2022/10/01 09:37:34;;;;;;;;;;;;;28.56;97485.60;;;;110744;1250;41293;-61
2022/10/01 09:40:18;;;;;;;;;;;;;28.38;97483.20;;;;111061;1247;42653;-61
2022/10/01 09:42:46;;;;;;;;;;;;;28.48;97477.20;;;;111101;1247;41197;-61
2022/10/01 09:45:14;;;;;;;;;;;;;28.50;97470.40;;;;111073;1247;41703;-61
2022/10/01 09:47:42;;;;;;;;;;;;;28.58;97464.20;;;;111079;1247;41521;-61
2022/10/01 09:50:12;;;;;;;;;;;;;28.60;97462.40;;;;111039;1247;41604;-61
2022/10/01 09:52:39;;;;;;;;;;;;;28.70;97451.60;;;;111082;1247;41137;-61
2022/10/01 09:55:06;;;;;;;;;;;;;29.04;97448.60;;;;110979;1247;41605;-61
2022/10/01 09:57:37;;;;;;;;;;;;;29.18;97439.00;;;;111107;1247;41144;-61
2022/10/01 10:00:09;;;;;;;;;;;;;29.34;97443.00;;;;111111;1247;41859;-61
2022/10/01 10:02:39;;;;;;;;;;;;;29.60;97437.80;;;;110745;1250;41209;-61
2022/10/01 10:05:09;;;;;;;;;;;;;29.80;97434.80;;;;111013;1248;41178;-61
2022/10/01 10:07:38;;;;;;;;;;;;;29.50;97428.20;;;;111082;1247;41144;-61
2022/10/01 10:10:24;;;;;;;;;;;;;29.56;97421.20;;;;110848;1247;41603;-60
2022/10/01 10:12:56;;;;;;;;;;;;;30.02;97418.60;;;;111114;1246;41584;-60
2022/10/01 10:15:27;;;;;;;;;;;;;30.44;97412.00;;;;111119;1247;42369;-61
2022/10/01 10:17:54;;;;;;;;;;;;;30.50;97406.80;;;;111084;1247;41886;-60
2022/10/01 10:20:25;;;;;;;;;;;;;30.90;97406.20;;;;110710;1250;41894;-60
2022/10/01 10:22:52;;;;;;;;;;;;;31.38;97400.60;;;;111048;1247;42492;-60
2022/10/01 10:25:21;;;;;;;;;;;;;31.86;97402.20;;;;111074;1247;41146;-60
2022/10/01 10:27:53;;;;;;;;;;;;;32.30;97413.40;;;;111087;1247;41152;-60
2022/10/01 10:30:23;;;;;;;;;;;;;32.30;97401.00;;;;111075;1247;41142;-61
2022/10/01 10:32:50;;;;;;;;;;;;;32.70;97404.00;;;;111076;1249;41133;-61
2022/10/01 10:35:23;;;;;;;;;;;;;32.76;97397.40;;;;111058;1247;41625;-62
2022/10/01 10:37:54;;;;;;;;;;;;;32.80;97392.60;;;;111110;1247;41264;-62
2022/10/01 10:40:22;;;;;;;;;;;;;33.06;97387.20;;;;111095;1248;41133;-63
2022/10/01 10:42:55;;;;;;;;;;;;;33.00;97382.00;;;;110991;1249;41178;-61
2022/10/01 10:45:29;;;;;;;;;;;;;32.34;97374.80;;;;111137;1247;41137;-61
2022/10/01 10:47:56;;;;;;;;;;;;;33.16;97379.20;;;;111155;1249;41504;-60
2022/10/01 10:50:30;;;;;;;;;;;;;33.64;97370.80;;;;111061;1249;41266;-60
2022/10/01 10:52:58;;;;;;;;;;;;;33.62;97368.60;;;;110696;1249;41657;-60
2022/10/01 10:55:29;;;;;;;;;;;;;33.74;97364.60;;;;111052;1248;41294;-60
2022/10/01 10:58:08;;;;;;;;;;;;;33.90;97374.80;;;;111137;1247;41196;-61
2022/10/01 11:00:36;;;;;;;;;;;;;33.54;97376.00;;;;111119;1247;41248;-60
2022/10/01 11:03:04;;;;;;;;;;;;;33.30;97371.80;;;;110800;1249;41153;-60
2022/10/01 11:05:31;;;;;;;;;;;;;32.66;97357.60;;;;110724;1249;41245;-60
2022/10/01 11:08:00;;;;;;;;;;;;;32.32;97352.60;;;;111111;1247;41671;-60
2022/10/01 11:10:36;;;;;;;;;;;;;31.86;97352.80;;;;111049;1247;41245;-60
2022/10/01 11:13:16;;;;;;;;;;;;;32.10;97349.80;;;;111042;1247;41155;-60
2022/10/01 11:15:55;;;;;;;;;;;;;32.32;97341.20;;;;111104;1247;41255;-60
2022/10/01 11:18:29;;;;;;;;;;;;;32.70;97340.20;;;;111121;1248;41820;-60
2022/10/01 11:20:56;;;;;;;;;;;;;32.60;97335.00;;;;111049;1247;41251;-60
2022/10/01 11:23:35;;;;;;;;;;;;;32.20;97334.40;;;;111107;1249;41133;-60
2022/10/01 11:26:09;;;;;;;;;;;;;31.30;97327.60;;;;111103;1248;41255;-60
2022/10/01 11:28:39;;;;;;;;;;;;;30.78;97332.60;;;;111066;1247;41268;-60
2022/10/01 11:31:06;;;;;;;;;;;;;30.54;97335.80;;;;111028;1249;41649;-61
2022/10/01 11:33:46;;;;;;;;;;;;;30.24;97333.60;;;;111077;1249;41718;-61
2022/10/01 11:36:16;;;;;;;;;;;;;29.78;97331.80;;;;111124;1248;41258;-61
2022/10/01 11:38:44;;;;;;;;;;;;;29.66;97323.80;;;;111161;1249;41623;-61
2022/10/01 11:41:14;;;;;;;;;;;;;29.78;97323.20;;;;111060;1247;41159;-62
2022/10/01 11:43:41;;;;;;;;;;;;;29.68;97319.00;;;;111159;1247;41303;-61
2022/10/01 11:46:09;;;;;;;;;;;;;29.90;97318.00;;;;111087;1247;41133;-61
2022/10/01 11:48:38;;;;;;;;;;;;;29.80;97317.60;;;;111085;1247;41185;-61
2022/10/01 11:51:11;;;;;;;;;;;;;29.90;97312.00;;;;111075;1247;41259;-61
2022/10/01 11:53:44;;;;;;;;;;;;;29.88;97311.20;;;;111263;1247;41475;-60
2022/10/01 11:59:04;;;;;;;;;;;;;29.20;97306.40;;;;111180;1247;41135;-60
2022/10/01 12:01:39;;;;;;;;;;;;;29.20;97301.80;;;;111186;1248;41255;-60
2022/10/01 12:04:05;;;;;;;;;;;;;29.08;97292.00;;;;110800;1247;41156;-60
2022/10/01 12:06:35;;;;;;;;;;;;;28.78;97289.00;;;;111198;1247;41612;-60
2022/10/01 12:09:17;;;;;;;;;;;;;28.46;97292.60;;;;110971;1249;41237;-60
2022/10/01 12:11:48;;;;;;;;;;;;;28.10;97285.60;;;;111052;1247;41174;-60
2022/10/01 12:14:17;;;;;;;;;;;;;27.90;97282.00;;;;111120;1247;42830;-60
2022/10/01 12:16:44;;;;;;;;;;;;;27.70;97277.20;;;;111127;1248;41152;-60
2022/10/01 12:19:20;;;;;;;;;;;;;27.50;97271.20;;;;111065;1246;41271;-60
2022/10/01 12:21:50;;;;;;;;;;;;;27.50;97263.40;;;;110934;1247;41616;-61
2022/10/01 12:24:19;;;;;;;;;;;;;27.60;97259.20;;;;111356;1247;41115;-61
2022/10/01 12:26:59;;;;;;;;;;;;;27.60;97254.40;;;;111218;1247;41601;-61
2022/10/01 12:29:46;;;;;;;;;;;;;27.60;97254.40;;;;111277;1247;41261;-61
2022/10/01 12:32:21;;;;;;;;;;;;;27.50;97253.60;;;;111288;1245;41247;-60
2022/10/01 12:35:04;;;;;;;;;;;;;27.50;97240.20;;;;110974;1250;42259;-61
2022/10/01 12:37:40;;;;;;;;;;;;;27.40;97230.00;;;;111220;1247;41732;-61
2022/10/01 12:40:12;;;;;;;;;;;;;27.46;97223.20;;;;111266;1247;41136;-60
2022/10/01 12:42:40;;;;;;;;;;;;;27.60;97227.40;;;;111234;1247;41515;-61
2022/10/01 12:45:36;;;;;;;;;;;;;27.70;97219.20;;;;111260;1247;41295;-61
2022/10/01 12:48:20;;;;;;;;;;;;;27.94;97207.40;;;;111064;1249;41145;-61
2022/10/01 12:50:51;;;;;;;;;;;;;28.28;97202.80;;;;111206;1247;41710;-61
2022/10/01 12:53:29;;;;;;;;;;;;;28.60;97202.80;;;;111292;1246;41152;-61
2022/10/01 12:55:59;;;;;;;;;;;;;28.80;97201.40;;;;111350;1247;41123;-61
2022/10/01 12:58:43;;;;;;;;;;;;;29.00;97198.20;;;;111206;1247;41258;-61
2022/10/01 13:01:19;;;;;;;;;;;;;29.20;97196.40;;;;111477;1247;41621;-61
2022/10/01 13:04:04;;;;;;;;;;;;;29.40;97190.00;;;;111199;1247;41647;-61
2022/10/01 13:06:35;;;;;;;;;;;;;29.50;97187.80;;;;110999;1249;41280;-61
2022/10/01 13:09:08;;;;;;;;;;;;;29.50;97182.40;;;;111069;1247;41125;-61
2022/10/01 13:11:40;;;;;;;;;;;;;29.60;97177.80;;;;111048;1247;41254;-61
2022/10/01 13:14:11;;;;;;;;;;;;;29.70;97175.60;;;;111074;1249;41264;-61
2022/10/01 13:16:48;;;;;;;;;;;;;29.74;97166.40;;;;111087;1247;41611;-61
2022/10/01 13:19:27;;;;;;;;;;;;;29.82;97166.00;;;;110993;1249;41266;-61
2022/10/01 13:21:54;;;;;;;;;;;;;29.90;97161.60;;;;111094;1247;41258;-61
2022/10/01 13:24:39;;;;;;;;;;;;;29.90;97157.40;;;;111066;1248;41255;-61
2022/10/01 13:27:25;;;;;;;;;;;;;29.90;97149.00;;;;111121;1247;41507;-61
2022/10/01 13:29:58;;;;;;;;;;;;;29.82;97143.60;;;;111068;1247;41800;-61
2022/10/01 13:32:33;;;;;;;;;;;;;29.80;97136.40;;;;111066;1247;41260;-61
2022/10/01 13:35:20;;;;;;;;;;;;;29.80;97129.00;;;;111083;1249;41153;-61
2022/10/01 13:37:47;;;;;;;;;;;;;29.80;97131.20;;;;111057;1247;41174;-61
2022/10/01 13:40:33;;;;;;;;;;;;;29.70;97128.80;;;;111065;1247;41316;-61
2022/10/01 13:43:06;;;;;;;;;;;;;29.70;97130.20;;;;111065;1248;41136;-62
2022/10/01 13:45:36;;;;;;;;;;;;;29.64;97123.40;;;;111071;1249;42304;-63
2022/10/01 13:48:05;;;;;;;;;;;;;29.60;97122.00;;;;111112;1248;41131;-61
2022/10/01 13:50:32;;;;;;;;;;;;;29.50;97122.40;;;;111125;1248;42519;-61
2022/10/01 13:53:16;;;;;;;;;;;;;29.40;97119.00;;;;111107;1247;41729;-61
2022/10/01 13:55:43;;;;;;;;;;;;;29.30;97113.80;;;;111121;1248;41255;-61
2022/10/01 13:58:34;;;;;;;;;;;;;29.20;97105.80;;;;111056;1247;41923;-61